Time,TemperatureF,DewpointF,PressureIn,WindDirection,WindDirectionDegrees,WindSpeedMPH,WindSpeedGustMPH,Humidity,HourlyPrecipIn,Conditions,Clouds,dailyrainin,SolarRadiationWatts/m^2,SoftwareType,DateUTC
2013-05-11 00:11:00,65.0,34.0,-100.00,NW,314,7.0,10.0,32,0.00,,,0.00,0.000000,,2013-05-11 07:11:00,
2013-05-11 00:21:00,65.0,34.0,-100.00,NW,314,7.0,10.0,32,0.00,,,0.00,0.000000,,2013-05-11 07:21:00,
2013-05-11 00:31:00,65.0,34.0,-100.00,NW,314,7.0,10.0,32,0.00,,,0.00,0.000000,,2013-05-11 07:31:00,
2013-05-11 00:41:00,65.0,34.0,-100.00,NW,314,7.0,10.0,32,0.00,,,0.00,0.000000,,2013-05-11 07:41:00,
2013-05-11 01:12:00,61.0,31.0,-100.00,NNW,327,7.0,9.0,32,0.00,,,0.00,0.000000,,2013-05-11 08:12:00,
2013-05-11 01:21:00,61.0,31.0,-100.00,NNW,327,7.0,9.0,32,0.00,,,0.00,0.000000,,2013-05-11 08:21:00,
2013-05-11 01:31:00,61.0,31.0,-100.00,NNW,327,7.0,9.0,32,0.00,,,0.00,0.000000,,2013-05-11 08:31:00,
2013-05-11 01:42:00,61.0,31.0,-100.00,NNW,327,7.0,9.0,32,0.00,,,0.00,0.000000,,2013-05-11 08:42:00,
2013-05-11 02:11:00,62.0,31.0,-100.00,NW,317,5.0,10.0,31,0.00,,,0.00,0.000000,,2013-05-11 09:11:00,
2013-05-11 02:21:00,62.0,31.0,-100.00,NW,317,5.0,10.0,31,0.00,,,0.00,0.000000,,2013-05-11 09:21:00,
2013-05-11 02:32:00,62.0,31.0,-100.00,NW,317,5.0,10.0,31,0.00,,,0.00,0.000000,,2013-05-11 09:32:00,
2013-05-11 02:42:00,62.0,31.0,-100.00,NW,317,5.0,10.0,31,0.00,,,0.00,0.000000,,2013-05-11 09:42:00,
2013-05-11 03:12:00,58.0,35.0,-100.00,NE,35,6.0,8.0,42,0.00,,,0.00,0.000000,,2013-05-11 10:12:00,
2013-05-11 03:22:00,58.0,35.0,-100.00,NE,35,6.0,8.0,42,0.00,,,0.00,0.000000,,2013-05-11 10:22:00,
2013-05-11 03:32:00,58.0,35.0,-100.00,NE,35,6.0,8.0,42,0.00,,,0.00,0.000000,,2013-05-11 10:32:00,
2013-05-11 03:42:00,58.0,35.0,-100.00,NE,35,6.0,8.0,42,0.00,,,0.00,0.000000,,2013-05-11 10:42:00,
2013-05-11 04:11:00,57.0,35.0,-100.00,NNW,332,6.0,9.0,44,0.00,,,0.00,0.000000,,2013-05-11 11:11:00,
2013-05-11 04:21:00,57.0,35.0,-100.00,NNW,332,6.0,9.0,44,0.00,,,0.00,0.000000,,2013-05-11 11:21:00,
2013-05-11 04:31:00,57.0,35.0,-100.00,NNW,332,6.0,9.0,44,0.00,,,0.00,0.000000,,2013-05-11 11:31:00,
2013-05-11 04:42:00,57.0,35.0,-100.00,NNW,332,6.0,9.0,44,0.00,,,0.00,0.000000,,2013-05-11 11:42:00,
2013-05-11 05:11:00,55.0,35.0,-100.00,NNW,328,7.0,9.0,47,0.00,,,-99.99,0.000000,,2013-05-11 12:11:00,
2013-05-11 05:21:00,55.0,35.0,-100.00,NNW,328,7.0,9.0,47,0.00,,,-99.99,0.000000,,2013-05-11 12:21:00,
2013-05-11 05:32:00,55.0,35.0,-100.00,NNW,328,7.0,9.0,47,0.00,,,-99.99,0.000000,,2013-05-11 12:32:00,
2013-05-11 05:42:00,55.0,35.0,-100.00,NNW,328,7.0,9.0,47,0.00,,,-99.99,0.000000,,2013-05-11 12:42:00,
2013-05-11 06:11:00,57.0,36.0,-100.00,SSE,147,4.0,8.0,45,0.00,,,-99.99,0.000000,,2013-05-11 13:11:00,
2013-05-11 06:21:00,57.0,36.0,-100.00,SSE,147,4.0,8.0,45,0.00,,,-99.99,0.000000,,2013-05-11 13:21:00,
2013-05-11 06:31:00,57.0,36.0,-100.00,SSE,147,4.0,8.0,45,0.00,,,-99.99,0.000000,,2013-05-11 13:31:00,
2013-05-11 06:41:00,57.0,36.0,-100.00,SSE,147,4.0,8.0,45,0.00,,,-99.99,0.000000,,2013-05-11 13:41:00,
2013-05-11 07:11:00,60.0,40.0,-100.00,NW,306,6.0,8.0,47,0.00,,,0.00,0.000000,,2013-05-11 14:11:00,
2013-05-11 07:21:00,60.0,40.0,-100.00,NW,306,6.0,8.0,47,0.00,,,0.00,0.000000,,2013-05-11 14:21:00,
2013-05-11 07:32:00,60.0,40.0,-100.00,NW,306,6.0,8.0,47,0.00,,,0.00,0.000000,,2013-05-11 14:32:00,
2013-05-11 07:41:00,60.0,40.0,-100.00,NW,306,6.0,8.0,47,0.00,,,0.00,0.000000,,2013-05-11 14:41:00,
2013-05-11 08:11:00,66.0,42.0,-100.00,NNW,347,3.0,7.0,42,0.00,,,0.00,1.000000,,2013-05-11 15:11:00,
2013-05-11 08:21:00,66.0,42.0,-100.00,NNW,347,3.0,7.0,42,0.00,,,0.00,1.000000,,2013-05-11 15:21:00,
2013-05-11 08:32:00,66.0,42.0,-100.00,NNW,347,3.0,7.0,42,0.00,,,0.00,1.000000,,2013-05-11 15:32:00,
2013-05-11 08:42:00,66.0,42.0,-100.00,NNW,347,3.0,7.0,42,0.00,,,0.00,1.000000,,2013-05-11 15:42:00,
2013-05-11 09:12:00,70.0,39.0,-100.00,NNW,334,6.0,9.0,32,0.00,,,0.00,114.000000,,2013-05-11 16:12:00,
2013-05-11 09:22:00,70.0,39.0,-100.00,NNW,334,6.0,9.0,32,0.00,,,0.00,114.000000,,2013-05-11 16:22:00,
2013-05-11 09:33:00,70.0,39.0,-100.00,NNW,334,6.0,9.0,32,0.00,,,0.00,114.000000,,2013-05-11 16:33:00,
2013-05-11 09:42:00,70.0,39.0,-100.00,NNW,334,6.0,9.0,32,0.00,,,0.00,114.000000,,2013-05-11 16:42:00,
2013-05-11 10:12:00,76.0,33.0,-100.00,NNW,329,9.0,14.0,21,0.00,,,0.00,379.000000,,2013-05-11 17:12:00,
2013-05-11 10:22:00,76.0,33.0,-100.00,NNW,329,9.0,14.0,21,0.00,,,0.00,379.000000,,2013-05-11 17:22:00,
2013-05-11 10:31:00,76.0,33.0,-100.00,NNW,329,9.0,14.0,21,0.00,,,0.00,379.000000,,2013-05-11 17:31:00,
2013-05-11 11:11:00,80.0,38.0,-100.00,NW,314,5.0,12.0,22,0.00,,,0.00,492.000000,,2013-05-11 18:11:00,
2013-05-11 11:41:00,80.0,38.0,-100.00,NW,314,5.0,12.0,22,0.00,,,0.00,492.000000,,2013-05-11 18:41:00,
2013-05-11 12:11:00,82.0,34.0,-100.00,NW,307,4.0,12.0,18,0.00,,,0.00,653.000000,,2013-05-11 19:11:00,
2013-05-11 12:21:00,82.0,34.0,-100.00,NW,307,4.0,12.0,18,0.00,,,0.00,653.000000,,2013-05-11 19:21:00,
2013-05-11 12:32:00,82.0,34.0,-100.00,NW,307,4.0,12.0,18,0.00,,,0.00,653.000000,,2013-05-11 19:32:00,
2013-05-11 12:41:00,82.0,34.0,-100.00,NW,307,4.0,12.0,18,0.00,,,0.00,653.000000,,2013-05-11 19:41:00,
2013-05-11 13:12:00,84.0,37.0,-100.00,SW,224,7.0,15.0,19,0.00,,,0.00,826.000000,,2013-05-11 20:12:00,
2013-05-11 13:22:00,84.0,37.0,-100.00,SW,224,7.0,15.0,19,0.00,,,0.00,826.000000,,2013-05-11 20:22:00,
2013-05-11 13:32:00,84.0,37.0,-100.00,SW,224,7.0,15.0,19,0.00,,,0.00,826.000000,,2013-05-11 20:32:00,
2013-05-11 13:42:00,84.0,37.0,-100.00,SW,224,7.0,15.0,19,0.00,,,0.00,826.000000,,2013-05-11 20:42:00,
2013-05-11 14:11:00,84.0,34.0,-100.00,SSW,200,7.0,20.0,17,0.00,,,0.00,717.000000,,2013-05-11 21:11:00,
2013-05-11 14:21:00,84.0,34.0,-100.00,SSW,200,7.0,20.0,17,0.00,,,0.00,717.000000,,2013-05-11 21:21:00,
2013-05-11 14:33:00,84.0,34.0,-100.00,SSW,200,7.0,20.0,17,0.00,,,0.00,717.000000,,2013-05-11 21:33:00,
2013-05-11 14:43:00,84.0,34.0,-100.00,SSW,200,7.0,20.0,17,0.00,,,0.00,717.000000,,2013-05-11 21:43:00,
2013-05-11 15:13:00,85.0,37.0,-100.00,WSW,245,9.0,17.0,18,0.00,,,0.00,745.000000,,2013-05-11 22:13:00,
2013-05-11 15:22:00,85.0,37.0,-100.00,WSW,245,9.0,17.0,18,0.00,,,0.00,745.000000,,2013-05-11 22:22:00,
2013-05-11 15:33:00,85.0,37.0,-100.00,WSW,245,9.0,17.0,18,0.00,,,0.00,745.000000,,2013-05-11 22:33:00,
2013-05-11 15:42:00,85.0,37.0,-100.00,WSW,245,9.0,17.0,18,0.00,,,0.00,745.000000,,2013-05-11 22:42:00,
2013-05-11 16:12:00,86.0,39.0,-100.00,SW,219,7.0,16.0,19,0.00,,,0.00,407.000000,,2013-05-11 23:12:00,
2013-05-11 16:22:00,86.0,39.0,-100.00,SW,219,7.0,16.0,19,0.00,,,0.00,407.000000,,2013-05-11 23:22:00,
2013-05-11 16:32:00,86.0,39.0,-100.00,SW,219,7.0,16.0,19,0.00,,,0.00,407.000000,,2013-05-11 23:32:00,
2013-05-11 16:42:00,86.0,39.0,-100.00,SW,219,7.0,16.0,19,0.00,,,0.00,407.000000,,2013-05-11 23:42:00,
2013-05-11 17:11:00,85.0,39.0,-100.00,WSW,248,8.0,18.0,20,0.00,,,0.00,244.000000,,2013-05-12 00:11:00,
2013-05-11 17:21:00,85.0,39.0,-100.00,WSW,248,8.0,18.0,20,0.00,,,0.00,244.000000,,2013-05-12 00:21:00,
2013-05-11 17:32:00,85.0,39.0,-100.00,WSW,248,8.0,18.0,20,0.00,,,0.00,244.000000,,2013-05-12 00:32:00,
2013-05-11 17:41:00,85.0,39.0,-100.00,WSW,248,8.0,18.0,20,0.00,,,0.00,244.000000,,2013-05-12 00:41:00,
2013-05-11 18:11:00,82.0,41.0,-100.00,WSW,247,7.0,12.0,23,0.00,,,0.00,70.000000,,2013-05-12 01:11:00,
2013-05-11 18:21:00,82.0,41.0,-100.00,WSW,247,7.0,12.0,23,0.00,,,0.00,70.000000,,2013-05-12 01:21:00,
2013-05-11 18:31:00,82.0,41.0,-100.00,WSW,247,7.0,12.0,23,0.00,,,0.00,70.000000,,2013-05-12 01:31:00,
2013-05-11 18:41:00,82.0,41.0,-100.00,WSW,247,7.0,12.0,23,0.00,,,0.00,70.000000,,2013-05-12 01:41:00,
2013-05-11 19:11:00,81.0,41.0,-100.00,WSW,254,6.0,9.0,24,0.00,,,0.00,0.000000,,2013-05-12 02:11:00,
2013-05-11 19:22:00,81.0,41.0,-100.00,WSW,254,6.0,9.0,24,0.00,,,0.00,0.000000,,2013-05-12 02:22:00,
2013-05-11 19:31:00,81.0,41.0,-100.00,WSW,254,6.0,9.0,24,0.00,,,0.00,0.000000,,2013-05-12 02:31:00,
2013-05-11 19:41:00,81.0,41.0,-100.00,WSW,254,6.0,9.0,24,0.00,,,0.00,0.000000,,2013-05-12 02:41:00,
2013-05-11 20:11:00,73.0,42.0,-100.00,WNW,295,5.0,9.0,33,0.00,,,0.00,0.000000,,2013-05-12 03:11:00,
2013-05-11 20:22:00,73.0,42.0,-100.00,WNW,295,5.0,9.0,33,0.00,,,0.00,0.000000,,2013-05-12 03:22:00,
2013-05-11 20:32:00,73.0,42.0,-100.00,WNW,295,5.0,9.0,33,0.00,,,0.00,0.000000,,2013-05-12 03:32:00,
2013-05-11 20:42:00,73.0,42.0,-100.00,WNW,295,5.0,9.0,33,0.00,,,0.00,0.000000,,2013-05-12 03:42:00,
2013-05-11 21:12:00,69.0,40.0,-100.00,WNW,284,1.0,6.0,35,0.00,,,0.00,0.000000,,2013-05-12 04:12:00,
2013-05-11 21:22:00,69.0,40.0,-100.00,WNW,284,1.0,6.0,35,0.00,,,0.00,0.000000,,2013-05-12 04:22:00,
2013-05-11 21:33:00,69.0,40.0,-100.00,WNW,284,1.0,6.0,35,0.00,,,0.00,0.000000,,2013-05-12 04:33:00,
2013-05-11 21:43:00,69.0,40.0,-100.00,WNW,284,1.0,6.0,35,0.00,,,0.00,0.000000,,2013-05-12 04:43:00,
2013-05-11 22:11:00,64.0,40.0,-100.00,NW,307,5.0,7.0,41,0.00,,,0.00,0.000000,,2013-05-12 05:11:00,
2013-05-11 22:22:00,64.0,40.0,-100.00,NW,307,5.0,7.0,41,0.00,,,0.00,0.000000,,2013-05-12 05:22:00,
2013-05-11 22:31:00,64.0,40.0,-100.00,NW,307,5.0,7.0,41,0.00,,,0.00,0.000000,,2013-05-12 05:31:00,
2013-05-11 22:42:00,64.0,40.0,-100.00,NW,307,5.0,7.0,41,0.00,,,0.00,0.000000,,2013-05-12 05:42:00,
2013-05-11 23:11:00,65.0,41.0,-100.00,NNW,340,5.0,7.0,42,0.00,,,0.00,0.000000,,2013-05-12 06:11:00,
2013-05-11 23:21:00,65.0,41.0,-100.00,NNW,340,5.0,7.0,42,0.00,,,0.00,0.000000,,2013-05-12 06:21:00,
2013-05-11 23:32:00,65.0,41.0,-100.00,NNW,340,5.0,7.0,42,0.00,,,0.00,0.000000,,2013-05-12 06:32:00,
2013-05-11 23:42:00,65.0,41.0,-100.00,NNW,340,5.0,7.0,42,0.00,,,0.00,0.000000,,2013-05-12 06:42:00,